createdAt,value
2019-05-03T00:02:28.431Z,1.00
2019-05-03T00:05:12.522Z,1.00
2019-05-03T00:07:42.984Z,1.00
2019-05-03T00:10:14.390Z,1.00
2019-05-03T00:12:44.581Z,1.00
2019-05-03T00:15:28.894Z,1.00
2019-05-03T00:17:59.008Z,1.00
2019-05-03T00:20:29.164Z,1.00
2019-05-03T00:23:00.060Z,1.00
2019-05-03T00:25:30.295Z,1.00
2019-05-03T00:28:01.838Z,1.00
2019-05-03T00:30:32.206Z,1.00
2019-05-03T00:33:02.931Z,1.00
2019-05-03T00:36:08.954Z,1.00
2019-05-03T00:38:39.066Z,1.00
2019-05-03T00:41:09.283Z,1.00
2019-05-03T00:43:39.339Z,1.00
2019-05-03T00:46:09.522Z,1.00
2019-05-03T00:48:39.855Z,1.00
2019-05-03T00:51:11.779Z,1.00
2019-05-03T00:53:42.483Z,1.00
2019-05-03T00:56:13.451Z,1.00
2019-05-03T00:58:53.807Z,1.00
2019-05-03T01:01:25.282Z,1.00
2019-05-03T01:03:55.429Z,1.00
2019-05-03T01:06:25.515Z,1.00
2019-05-03T01:08:55.683Z,1.00
2019-05-03T01:11:26.054Z,1.00
2019-05-03T01:13:56.184Z,12.10
2019-05-03T01:16:26.338Z,7.70
2019-05-03T01:18:56.417Z,18.40
2019-05-03T01:21:26.697Z,12.90
2019-05-03T01:23:57.085Z,10.40
2019-05-03T01:26:27.217Z,16.00
2019-05-03T01:28:57.471Z,20.40
2019-05-03T01:31:27.629Z,20.10
2019-05-03T01:33:57.989Z,22.60
2019-05-03T01:36:28.288Z,15.20
2019-05-03T01:38:58.359Z,20.00
2019-05-03T01:41:28.547Z,25.20
2019-05-03T01:43:58.619Z,22.00
2019-05-03T01:46:29.223Z,13.20
2019-05-03T01:49:05.778Z,18.70
2019-05-03T01:51:54.181Z,17.30
2019-05-03T01:54:24.343Z,25.30
2019-05-03T01:56:59.021Z,17.50
2019-05-03T01:59:28.795Z,9.00
2019-05-03T02:02:14.284Z,17.70
2019-05-03T02:04:53.334Z,8.30
2019-05-03T02:07:23.157Z,14.30
2019-05-03T02:09:53.358Z,16.80
2019-05-03T02:12:23.549Z,22.30
2019-05-03T02:14:53.651Z,24.60
2019-05-03T02:17:23.758Z,21.00
2019-05-03T02:19:53.843Z,26.20
2019-05-03T02:22:24.361Z,31.00
2019-05-03T02:24:54.551Z,21.50
2019-05-03T02:27:24.709Z,30.00
2019-05-03T02:29:54.951Z,19.20
2019-05-03T02:32:25.220Z,23.50
2019-05-03T02:34:55.446Z,26.70
2019-05-03T02:37:25.626Z,27.90
2019-05-03T02:39:57.751Z,21.30
2019-05-03T02:42:28.013Z,26.00
2019-05-03T02:44:59.404Z,23.60
2019-05-03T02:47:55.184Z,23.60
2019-05-03T02:50:26.091Z,26.00
2019-05-03T02:52:56.616Z,21.30
2019-05-03T02:55:26.757Z,25.80
2019-05-03T02:57:56.836Z,24.40
2019-05-03T03:00:56.132Z,25.40
2019-05-03T03:03:27.618Z,29.50
2019-05-03T03:05:59.373Z,31.00
2019-05-03T03:08:33.625Z,39.80
2019-05-03T03:11:06.261Z,39.30
2019-05-03T03:13:38.686Z,30.80
2019-05-03T03:16:11.197Z,36.70
2019-05-03T03:18:45.339Z,36.30
2019-05-03T03:21:17.408Z,39.00
2019-05-03T03:23:57.581Z,41.50
2019-05-03T03:26:37.710Z,38.60
2019-05-03T03:29:05.671Z,39.70
2019-05-03T03:32:19.353Z,41.20
2019-05-03T03:35:03.261Z,39.60
2019-05-03T03:37:32.283Z,43.70
2019-05-03T03:40:05.763Z,40.90
2019-05-03T03:42:36.077Z,42.90
2019-05-03T03:45:06.925Z,43.50
2019-05-03T03:47:43.039Z,44.30
2019-05-03T03:50:15.188Z,45.70
2019-05-03T03:52:46.264Z,43.20
2019-05-03T03:55:16.641Z,38.00
2019-05-03T03:57:47.062Z,46.60
2019-05-03T04:00:18.235Z,47.90
2019-05-03T04:02:48.858Z,57.20
2019-05-03T04:05:19.301Z,53.70
2019-05-03T04:07:49.846Z,61.60
2019-05-03T04:10:20.098Z,61.30
2019-05-03T04:12:50.288Z,62.80
2019-05-03T04:15:38.449Z,60.30
2019-05-03T04:18:25.719Z,62.10
2019-05-03T04:20:56.929Z,66.00
2019-05-03T04:23:31.153Z,71.80
2019-05-03T04:26:02.943Z,72.80
2019-05-03T04:28:36.215Z,64.50
2019-05-03T04:31:06.358Z,66.10
2019-05-03T04:33:36.777Z,65.40
2019-05-03T04:36:07.028Z,58.00
2019-05-03T04:38:37.198Z,57.40
2019-05-03T04:41:07.399Z,58.60
2019-05-03T04:43:37.817Z,51.40
2019-05-03T04:46:16.368Z,50.90
2019-05-03T04:48:47.141Z,46.40
2019-05-03T04:51:18.425Z,43.30
2019-05-03T04:53:58.178Z,49.60
2019-05-03T04:56:28.383Z,44.00
2019-05-03T04:58:58.523Z,48.30
2019-05-03T05:01:28.718Z,45.50
2019-05-03T05:03:58.995Z,46.20
2019-05-03T05:06:29.240Z,47.40
2019-05-03T05:08:59.601Z,50.70
2019-05-03T05:11:29.916Z,51.50
2019-05-03T05:14:00.088Z,52.50
2019-05-03T05:16:30.369Z,52.90
2019-05-03T05:19:05.746Z,50.00
2019-05-03T05:21:39.905Z,52.00
2019-05-03T05:24:10.155Z,53.70
2019-05-03T05:26:46.105Z,55.40
2019-05-03T05:29:18.151Z,51.10
2019-05-03T05:31:48.245Z,53.00
2019-05-03T05:34:18.513Z,47.30
2019-05-03T05:36:48.683Z,53.10
2019-05-03T05:39:19.466Z,48.10
2019-05-03T05:41:49.811Z,47.90
2019-05-03T05:44:20.203Z,42.90
2019-05-03T05:47:09.506Z,39.00
2019-05-03T05:49:44.410Z,48.20
2019-05-03T05:52:16.162Z,41.90
2019-05-03T05:54:50.319Z,34.80
2019-05-03T05:57:36.845Z,29.80
2019-05-03T06:00:15.300Z,27.20
2019-05-03T06:02:46.177Z,21.30
2019-05-03T06:05:16.333Z,21.80
2019-05-03T06:08:04.843Z,16.30
2019-05-03T06:10:40.099Z,17.60
2019-05-03T06:13:23.487Z,18.80
2019-05-03T06:16:18.400Z,19.30
2019-05-03T06:19:22.943Z,22.80
2019-05-03T06:22:15.409Z,23.00
2019-05-03T06:24:54.336Z,14.70
2019-05-03T06:27:30.143Z,21.50
2019-05-03T06:30:05.727Z,15.60
2019-05-03T06:32:38.099Z,21.40
2019-05-03T06:35:12.115Z,28.40
2019-05-03T06:37:45.882Z,36.20
2019-05-03T06:40:16.901Z,23.50
2019-05-03T06:42:54.472Z,27.00
2019-05-03T06:45:18.691Z,18.00
2019-05-03T06:47:50.042Z,16.00
2019-05-03T06:50:25.217Z,6.80
2019-05-03T06:52:52.469Z,4.40
2019-05-03T06:55:24.608Z,6.10
2019-05-03T06:57:54.670Z,9.50
2019-05-03T07:00:45.220Z,9.90
2019-05-03T07:03:35.416Z,12.00
2019-05-03T07:06:36.207Z,21.60
2019-05-03T07:09:15.457Z,10.20
2019-05-03T07:11:45.663Z,6.30
2019-05-03T07:14:15.786Z,11.00
2019-05-03T07:16:46.038Z,1.00
2019-05-03T07:19:16.122Z,1.00
2019-05-03T07:21:46.684Z,1.00
2019-05-03T07:24:16.819Z,1.00
2019-05-03T07:26:46.905Z,1.00
2019-05-03T07:29:17.013Z,1.00
2019-05-03T07:31:47.235Z,1.00
2019-05-03T07:34:17.706Z,1.00
2019-05-03T07:36:47.859Z,1.00
2019-05-03T07:39:17.930Z,1.00
2019-05-03T07:41:48.401Z,1.00
2019-05-03T07:44:19.583Z,1.00
2019-05-03T07:46:49.641Z,1.00
2019-05-03T07:49:19.948Z,1.00
2019-05-03T07:51:50.299Z,1.00
2019-05-03T07:54:20.707Z,1.00
2019-05-03T07:56:56.007Z,1.00
2019-05-03T07:59:26.103Z,1.00
2019-05-03T08:01:57.663Z,1.00
2019-05-03T08:04:27.841Z,1.00
2019-05-03T08:06:58.004Z,1.00
2019-05-03T08:09:28.059Z,1.00
2019-05-03T08:11:58.157Z,1.00
2019-05-03T08:14:28.432Z,1.00
2019-05-03T08:16:58.742Z,1.00
2019-05-03T08:19:28.933Z,10.90
2019-05-03T08:21:59.093Z,18.20
2019-05-03T08:24:29.174Z,9.50
2019-05-03T08:26:59.293Z,6.00
2019-05-03T08:29:29.755Z,19.00
2019-05-03T08:32:21.905Z,16.70
2019-05-03T08:35:29.170Z,5.60
2019-05-03T08:38:00.793Z,1.00
2019-05-03T08:40:35.178Z,1.00
2019-05-03T08:43:05.326Z,1.00
2019-05-03T08:45:35.501Z,1.00
2019-05-03T08:48:06.007Z,1.00
2019-05-03T08:50:36.331Z,1.00
2019-05-03T08:53:06.560Z,1.00
2019-05-03T08:55:36.971Z,1.00
2019-05-03T08:58:07.222Z,1.00
2019-05-03T09:00:40.699Z,1.00
2019-05-03T09:03:11.144Z,1.00
2019-05-03T09:05:41.383Z,1.00
2019-05-03T09:08:11.628Z,1.00
2019-05-03T09:10:48.349Z,1.00
2019-05-03T09:13:20.153Z,1.00
2019-05-03T09:15:51.192Z,1.00
2019-05-03T09:18:21.423Z,1.00
2019-05-03T09:20:51.579Z,1.00
2019-05-03T09:23:23.407Z,1.00
2019-05-03T09:25:54.768Z,1.00
2019-05-03T09:28:28.794Z,1.00
2019-05-03T09:30:57.163Z,1.00
2019-05-03T09:33:27.323Z,1.00
2019-05-03T09:35:57.582Z,1.00
2019-05-03T09:38:27.799Z,1.00
2019-05-03T09:40:58.136Z,1.00
2019-05-03T09:43:28.386Z,1.00
2019-05-03T09:45:58.553Z,1.00
2019-05-03T09:48:28.715Z,1.00
2019-05-03T09:50:59.128Z,12.10
2019-05-03T09:53:32.087Z,22.80
2019-05-03T09:56:05.073Z,14.40
2019-05-03T09:58:38.130Z,15.50
2019-05-03T10:01:08.631Z,1.00
2019-05-03T10:03:38.868Z,1.00
2019-05-03T10:06:09.488Z,1.00
2019-05-03T10:08:39.635Z,1.00
2019-05-03T10:11:15.655Z,1.00
2019-05-03T10:13:48.223Z,1.00
2019-05-03T10:16:19.011Z,1.00
2019-05-03T10:18:49.238Z,1.00
2019-05-03T10:21:20.985Z,1.00
2019-05-03T10:23:54.743Z,1.00
2019-05-03T10:26:25.791Z,20.30
2019-05-03T10:28:56.163Z,16.90
2019-05-03T10:31:31.020Z,1.00
2019-05-03T10:34:02.659Z,1.00
2019-05-03T10:36:35.619Z,1.00
2019-05-03T10:39:07.323Z,1.00
2019-05-03T10:41:39.397Z,1.00
2019-05-03T10:44:09.533Z,1.00
2019-05-03T10:46:39.671Z,1.00
2019-05-03T10:49:09.871Z,1.00
2019-05-03T10:51:45.206Z,1.00
2019-05-03T10:54:17.302Z,1.00
2019-05-03T10:56:52.678Z,1.00
2019-05-03T10:59:24.848Z,1.00
2019-05-03T11:02:10.728Z,1.00
2019-05-03T11:04:43.517Z,1.00
2019-05-03T11:07:14.789Z,1.00
2019-05-03T11:09:49.758Z,1.00
2019-05-03T11:12:16.903Z,1.00
2019-05-03T11:14:46.981Z,1.00
2019-05-03T11:17:17.131Z,1.00
2019-05-03T11:19:47.594Z,1.00
2019-05-03T11:22:17.781Z,1.00
2019-05-03T11:24:47.959Z,1.00
2019-05-03T11:27:24.690Z,1.00
2019-05-03T11:29:55.576Z,1.00
2019-05-03T11:32:48.446Z,1.00
2019-05-03T11:35:40.561Z,1.00
2019-05-03T11:38:15.407Z,1.00
2019-05-03T11:40:45.734Z,1.00
2019-05-03T11:43:17.723Z,1.00
2019-05-03T11:45:47.951Z,1.00
2019-05-03T11:48:18.339Z,1.00
2019-05-03T11:50:49.055Z,1.00
2019-05-03T11:53:19.146Z,1.00
2019-05-03T11:55:49.341Z,1.00
2019-05-03T11:58:23.134Z,1.00
2019-05-03T12:01:19.951Z,1.00
2019-05-03T12:03:50.906Z,1.00
2019-05-03T12:06:21.176Z,1.00
2019-05-03T12:08:51.363Z,1.00
2019-05-03T12:11:24.430Z,1.00
2019-05-03T12:14:11.328Z,1.00
2019-05-03T12:17:14.520Z,1.00
2019-05-03T12:19:24.941Z,1.00
2019-05-03T12:21:53.082Z,1.00
2019-05-03T12:24:26.180Z,1.00
2019-05-03T12:26:56.017Z,1.00
2019-05-03T12:29:26.281Z,1.00
2019-05-03T12:31:56.499Z,1.00
2019-05-03T12:34:26.913Z,1.00
2019-05-03T12:36:57.895Z,1.00
2019-05-03T12:39:30.626Z,1.00
2019-05-03T12:42:01.024Z,1.00
2019-05-03T12:44:31.390Z,1.00
2019-05-03T12:47:02.709Z,1.00
2019-05-03T12:49:33.133Z,1.00
2019-05-03T12:52:05.219Z,1.00
2019-05-03T12:54:36.109Z,1.00
2019-05-03T12:57:06.727Z,1.00
2019-05-03T12:59:52.360Z,1.00
2019-05-03T13:02:46.127Z,1.00
2019-05-03T13:05:16.395Z,1.00
2019-05-03T13:08:05.617Z,1.00
2019-05-03T13:10:36.067Z,1.00
2019-05-03T13:13:06.487Z,1.00
2019-05-03T13:15:37.015Z,1.00
2019-05-03T13:18:07.238Z,1.00
2019-05-03T13:20:37.515Z,1.00
2019-05-03T13:23:07.679Z,1.00
2019-05-03T13:25:38.263Z,1.00
2019-05-03T13:28:08.451Z,1.00
2019-05-03T13:30:38.679Z,1.00
2019-05-03T13:33:09.234Z,1.00
2019-05-03T13:35:39.317Z,1.00
2019-05-03T13:38:09.782Z,1.00
2019-05-03T13:40:40.114Z,1.00
2019-05-03T13:43:10.297Z,1.00
2019-05-03T13:45:40.410Z,1.00
2019-05-03T13:48:10.619Z,1.00
2019-05-03T13:50:40.875Z,1.00
2019-05-03T13:53:11.248Z,1.00
2019-05-03T13:55:41.452Z,1.00
2019-05-03T13:58:11.738Z,1.00
2019-05-03T14:00:41.928Z,1.00
2019-05-03T14:03:15.291Z,1.00
2019-05-03T14:05:45.376Z,1.00
2019-05-03T14:08:18.491Z,1.00
2019-05-03T14:10:48.643Z,1.00
2019-05-03T14:13:18.886Z,1.00
2019-05-03T14:15:49.334Z,1.00
2019-05-03T14:18:19.590Z,1.00
2019-05-03T14:21:00.217Z,1.00
2019-05-03T14:23:30.333Z,1.00
2019-05-03T14:26:00.726Z,1.00
2019-05-03T14:28:31.153Z,1.00
2019-05-03T14:31:01.369Z,1.00
2019-05-03T14:33:31.586Z,1.00
2019-05-03T14:36:01.804Z,1.00
2019-05-03T14:38:33.799Z,1.00
2019-05-03T14:41:05.455Z,1.00
2019-05-03T14:43:35.806Z,1.00
2019-05-03T14:46:06.544Z,1.00
2019-05-03T14:48:36.755Z,1.00
2019-05-03T14:51:06.929Z,1.00
2019-05-03T14:53:37.400Z,1.00
2019-05-03T14:56:15.727Z,1.00
2019-05-03T14:59:08.146Z,1.00
2019-05-03T15:01:47.845Z,1.00
2019-05-03T15:04:18.020Z,1.00
2019-05-03T15:06:48.441Z,1.00
2019-05-03T15:09:19.243Z,1.00
2019-05-03T15:11:49.607Z,1.00
2019-05-03T15:14:19.798Z,1.00
2019-05-03T15:16:49.976Z,1.00
2019-05-03T15:19:20.144Z,1.00
2019-05-03T15:21:50.510Z,1.00
2019-05-03T15:24:22.148Z,1.00
2019-05-03T15:26:52.590Z,1.00
2019-05-03T15:29:24.565Z,1.00
2019-05-03T15:31:55.285Z,1.00
2019-05-03T15:34:25.683Z,1.00
2019-05-03T15:36:55.950Z,1.00
2019-05-03T15:39:26.126Z,1.00
2019-05-03T15:41:56.469Z,1.00
2019-05-03T15:44:34.107Z,1.00
2019-05-03T15:47:11.321Z,1.00
2019-05-03T15:49:41.586Z,1.00
2019-05-03T15:52:11.763Z,1.00
2019-05-03T15:54:41.947Z,1.00
2019-05-03T15:57:12.173Z,1.00
2019-05-03T15:59:44.382Z,1.00
2019-05-03T16:02:15.159Z,1.00
2019-05-03T16:04:45.727Z,1.00
2019-05-03T16:07:15.892Z,1.00
2019-05-03T16:09:46.075Z,1.00
2019-05-03T16:12:16.244Z,1.00
2019-05-03T16:14:46.664Z,1.00
2019-05-03T16:17:16.839Z,1.00
2019-05-03T16:19:47.698Z,1.00
2019-05-03T16:22:19.041Z,1.00
2019-05-03T16:24:49.182Z,1.00
2019-05-03T16:27:38.942Z,1.00
2019-05-03T16:30:25.966Z,1.00
2019-05-03T16:32:56.107Z,1.00
2019-05-03T16:35:26.299Z,1.00
2019-05-03T16:37:58.071Z,1.00
2019-05-03T16:40:28.239Z,1.00
2019-05-03T16:42:58.485Z,1.00
2019-05-03T16:45:28.955Z,1.00
2019-05-03T16:47:59.056Z,1.00
2019-05-03T16:50:30.292Z,1.00
2019-05-03T16:53:00.711Z,1.00
2019-05-03T16:55:35.002Z,1.00
2019-05-03T16:58:05.111Z,1.00
2019-05-03T17:00:35.347Z,1.00
2019-05-03T17:03:07.469Z,1.00
2019-05-03T17:05:48.131Z,1.00
2019-05-03T17:08:36.853Z,1.00
2019-05-03T17:11:09.372Z,1.00
2019-05-03T17:13:39.477Z,1.00
2019-05-03T17:16:10.335Z,1.00
2019-05-03T17:18:40.526Z,1.00
2019-05-03T17:21:10.880Z,1.00
2019-05-03T17:23:41.068Z,1.00
2019-05-03T17:26:11.291Z,1.00
2019-05-03T17:28:41.386Z,1.00
2019-05-03T17:31:13.126Z,1.00
2019-05-03T17:33:52.986Z,1.00
2019-05-03T17:36:15.090Z,1.00
2019-05-03T17:38:46.159Z,1.00
2019-05-03T17:41:35.321Z,1.00
2019-05-03T17:44:27.195Z,1.00
2019-05-03T17:46:57.382Z,1.00
2019-05-03T17:49:28.227Z,1.00
2019-05-03T17:52:21.613Z,1.00
2019-05-03T17:55:11.058Z,1.00
2019-05-03T17:58:00.388Z,1.00
2019-05-03T18:00:48.980Z,1.00
2019-05-03T18:03:21.053Z,1.00
2019-05-03T18:06:05.820Z,1.00
2019-05-03T18:08:51.678Z,1.00
2019-05-03T18:11:28.549Z,1.00
2019-05-03T18:13:58.653Z,1.00
2019-05-03T18:16:28.726Z,1.00
2019-05-03T18:18:59.043Z,1.00
2019-05-03T18:21:29.243Z,1.00
2019-05-03T18:23:59.457Z,1.00
2019-05-03T18:26:29.717Z,1.00
2019-05-03T18:28:59.816Z,1.00
2019-05-03T18:31:30.158Z,1.00
2019-05-03T18:34:00.274Z,1.00
2019-05-03T18:36:32.329Z,1.00
2019-05-03T18:39:02.195Z,1.00
2019-05-03T18:41:34.579Z,1.00
2019-05-03T18:44:14.787Z,1.00
2019-05-03T18:46:49.182Z,1.00
2019-05-03T18:49:19.515Z,1.00
2019-05-03T18:51:49.680Z,1.00
2019-05-03T18:54:19.827Z,1.00
2019-05-03T18:56:49.986Z,1.00
2019-05-03T18:59:20.514Z,1.00
2019-05-03T19:01:50.674Z,1.00
2019-05-03T19:04:34.703Z,1.00
2019-05-03T19:07:04.446Z,1.00
2019-05-03T19:09:45.827Z,1.00
2019-05-03T19:12:27.582Z,1.00
2019-05-03T19:14:57.944Z,1.00
2019-05-03T19:17:35.566Z,1.00
2019-05-03T19:20:09.204Z,1.00
2019-05-03T19:22:39.483Z,1.00
2019-05-03T19:25:10.967Z,1.00
2019-05-03T19:27:41.455Z,1.00
2019-05-03T19:30:12.492Z,1.00
2019-05-03T19:32:44.876Z,1.00
2019-05-03T19:35:17.631Z,1.00
2019-05-03T19:37:47.981Z,1.00
2019-05-03T19:40:18.739Z,1.00
2019-05-03T19:42:48.968Z,1.00
2019-05-03T19:45:19.319Z,1.00
2019-05-03T19:47:49.669Z,1.00
2019-05-03T19:50:19.801Z,1.00
2019-05-03T19:53:01.643Z,1.00
2019-05-03T19:55:31.961Z,1.00
2019-05-03T19:58:02.163Z,1.00
2019-05-03T20:00:46.845Z,1.00
2019-05-03T20:03:20.935Z,1.00
2019-05-03T20:06:00.654Z,1.00
2019-05-03T20:08:35.223Z,1.00
2019-05-03T20:11:18.926Z,1.00
2019-05-03T20:13:49.152Z,1.00
2019-05-03T20:16:19.800Z,1.00
2019-05-03T20:18:49.956Z,1.00
2019-05-03T20:21:20.128Z,1.00
2019-05-03T20:23:50.379Z,1.00
2019-05-03T20:26:20.987Z,1.00
2019-05-03T20:28:51.114Z,1.00
2019-05-03T20:31:21.330Z,1.00
2019-05-03T20:33:51.989Z,1.00
2019-05-03T20:36:22.160Z,1.00
2019-05-03T20:38:54.929Z,1.00
2019-05-03T20:41:27.518Z,1.00
2019-05-03T20:44:26.261Z,1.00
2019-05-03T20:47:04.285Z,1.00
2019-05-03T20:49:34.776Z,1.00
2019-05-03T20:52:07.278Z,1.00
2019-05-03T20:54:37.917Z,1.00
2019-05-03T20:57:08.102Z,1.00
2019-05-03T20:59:45.260Z,1.00
2019-05-03T21:02:10.144Z,1.00
2019-05-03T21:04:40.345Z,1.00
2019-05-03T21:07:11.053Z,1.00
2019-05-03T21:09:41.820Z,1.00
2019-05-03T21:12:11.922Z,1.00
2019-05-03T21:14:42.258Z,1.00
2019-05-03T21:17:34.602Z,1.00
2019-05-03T21:20:28.778Z,1.00
2019-05-03T21:22:59.016Z,1.00
2019-05-03T21:25:50.733Z,1.00
2019-05-03T21:28:07.268Z,1.00
2019-05-03T21:30:37.423Z,1.00
2019-05-03T21:33:08.452Z,1.00
2019-05-03T21:35:41.919Z,1.00
2019-05-03T21:38:10.783Z,1.00
2019-05-03T21:40:41.043Z,1.00
2019-05-03T21:43:11.120Z,1.00
2019-05-03T21:45:46.773Z,1.00
2019-05-03T21:48:27.374Z,1.00
2019-05-03T21:50:57.536Z,1.00
2019-05-03T21:53:27.889Z,1.00
2019-05-03T21:55:58.261Z,1.00
2019-05-03T21:58:28.358Z,1.00
2019-05-03T22:01:05.053Z,1.00
2019-05-03T22:03:37.141Z,1.00
2019-05-03T22:06:07.388Z,1.00
2019-05-03T22:08:37.596Z,1.00
2019-05-03T22:11:08.187Z,1.00
2019-05-03T22:13:38.725Z,1.00
2019-05-03T22:16:24.532Z,1.00
2019-05-03T22:18:54.685Z,1.00
2019-05-03T22:21:37.023Z,1.00
2019-05-03T22:24:25.266Z,1.00
2019-05-03T22:27:04.825Z,1.00
2019-05-03T22:29:35.642Z,1.00
2019-05-03T22:32:06.445Z,1.00
2019-05-03T22:34:37.939Z,1.00
2019-05-03T22:37:08.391Z,1.00
2019-05-03T22:39:38.535Z,1.00
2019-05-03T22:42:08.713Z,1.00
2019-05-03T22:44:38.752Z,1.00
2019-05-03T22:47:09.966Z,1.00
2019-05-03T22:49:40.228Z,1.00
2019-05-03T22:52:10.615Z,1.00
2019-05-03T22:54:40.806Z,1.10
2019-05-03T22:57:11.268Z,2.90
2019-05-03T22:59:41.415Z,6.10
2019-05-03T23:02:11.601Z,11.30
2019-05-03T23:04:41.864Z,12.90
2019-05-03T23:07:14.672Z,21.40
2019-05-03T23:09:44.683Z,30.20
2019-05-03T23:12:16.458Z,31.70
2019-05-03T23:14:46.526Z,33.30
2019-05-03T23:17:16.659Z,34.50
2019-05-03T23:19:51.545Z,37.70
2019-05-03T23:22:26.010Z,37.40
2019-05-03T23:24:56.437Z,36.20
2019-05-03T23:27:26.625Z,37.90
2019-05-03T23:29:56.825Z,37.20
2019-05-03T23:32:26.900Z,36.10
2019-05-03T23:34:56.975Z,41.80
2019-05-03T23:37:27.378Z,43.70
2019-05-03T23:39:57.485Z,45.30
2019-05-03T23:42:27.716Z,44.40
2019-05-03T23:44:57.862Z,45.90
2019-05-03T23:47:34.502Z,46.20
2019-05-03T23:50:08.763Z,50.00
2019-05-03T23:52:38.909Z,51.60
2019-05-03T23:55:34.633Z,52.00
2019-05-03T23:58:06.459Z,53.90
